Time;durP1;ratioP1;P1;durP2;ratioP2;P2;SDS_P1;SDS_P2;PMS_P1;PMS_P2;Temp;Humidity;BMP_temperature;BMP_pressure;BME280_temperature;BME280_humidity;BME280_pressure;Samples;Min_cycle;Max_cycle;Signal;HPM_P1;HPM_P2
2024/02/27 00:00:38;;;;;;;21.30;15.80;;;;;;;5.70;89.12;100987.35;104330;1267;61408;-66
2024/02/27 00:03:24;;;;;;;24.70;16.50;;;;;;;5.67;89.18;100986.68;104335;1267;61544;-66
2024/02/27 00:05:51;;;;;;;20.40;14.60;;;;;;;5.65;89.22;100988.00;108306;1262;139021;-66
2024/02/27 00:08:18;;;;;;;22.40;14.30;;;;;;;5.65;89.44;100988.20;108583;1262;66334;-66
2024/02/27 00:10:45;;;;;;;25.20;16.10;;;;;;;5.64;89.49;100988.16;108392;1262;138759;-66
2024/02/27 00:13:11;;;;;;;19.50;14.70;;;;;;;5.64;89.55;100990.39;108498;1262;59357;-63
2024/02/27 00:15:39;;;;;;;24.70;17.10;;;;;;;5.63;89.58;100992.42;108597;1263;59317;-66
2024/02/27 00:18:06;;;;;;;21.50;15.40;;;;;;;5.63;89.59;100991.73;108377;1264;138668;-67
2024/02/27 00:20:32;;;;;;;21.80;15.20;;;;;;;5.63;89.63;100996.30;108497;1262;67501;-68
2024/02/27 00:22:59;;;;;;;22.30;16.60;;;;;;;5.66;89.61;100997.60;108202;1265;138717;-68
2024/02/27 00:25:26;;;;;;;21.30;15.40;;;;;;;5.67;89.68;101001.16;108217;1268;59637;-68
2024/02/27 00:27:52;;;;;;;23.70;17.60;;;;;;;5.68;89.56;101005.70;108162;1267;59450;-68
2024/02/27 00:30:19;;;;;;;20.90;14.80;;;;;;;5.67;89.63;101005.86;108027;1265;139895;-67
2024/02/27 00:32:46;;;;;;;22.40;16.50;;;;;;;5.68;89.72;101003.11;108164;1266;65310;-67
2024/02/27 00:35:13;;;;;;;21.30;16.50;;;;;;;5.70;89.68;100998.67;108021;1266;138554;-67
2024/02/27 00:37:39;;;;;;;19.70;15.60;;;;;;;5.72;89.69;100998.94;108201;1268;59274;-68
2024/02/27 00:40:08;;;;;;;25.10;15.30;;;;;;;5.74;89.76;101002.71;108153;1267;59889;-68
2024/02/27 00:42:34;;;;;;;18.30;14.90;;;;;;;5.75;89.69;101002.57;107980;1269;139240;-67
2024/02/27 00:45:01;;;;;;;18.50;14.50;;;;;;;5.75;89.67;101001.17;108241;1263;65210;-67
2024/02/27 00:47:28;;;;;;;19.30;15.30;;;;;;;5.74;89.61;100999.58;107692;1264;138761;-67
2024/02/27 00:49:54;;;;;;;20.90;15.10;;;;;;;5.73;89.59;101003.20;104451;1262;61290;-66
2024/02/27 00:52:21;;;;;;;22.30;15.20;;;;;;;5.73;89.56;101005.09;104307;1266;61239;-66
2024/02/27 00:54:48;;;;;;;18.40;13.80;;;;;;;5.74;89.62;101009.30;104202;1269;138905;-66
2024/02/27 00:57:14;;;;;;;22.30;14.40;;;;;;;5.73;89.63;101019.54;104323;1262;65238;-67
2024/02/27 00:59:41;;;;;;;18.50;13.80;;;;;;;5.68;89.58;101014.29;104138;1262;138965;-67
2024/02/27 01:02:08;;;;;;;19.10;14.10;;;;;;;5.66;89.70;101019.91;104188;1262;61221;-66
2024/02/27 01:04:35;;;;;;;19.10;14.10;;;;;;;5.63;89.76;101018.00;104203;1268;62030;-65
2024/02/27 01:07:01;;;;;;;20.80;14.30;;;;;;;5.59;89.88;101016.11;104359;1268;138503;-66
2024/02/27 01:09:28;;;;;;;22.70;14.50;;;;;;;5.57;89.90;101018.45;104542;1268;65489;-66
2024/02/27 01:11:55;;;;;;;17.70;13.40;;;;;;;5.58;89.98;101018.83;104215;1266;138683;-64
2024/02/27 01:14:21;;;;;;;23.10;15.20;;;;;;;5.58;90.02;101015.71;104158;1265;61306;-64
2024/02/27 01:16:48;;;;;;;20.30;14.60;;;;;;;5.56;89.97;101015.98;104225;1264;138807;-66
2024/02/27 01:19:15;;;;;;;17.70;14.40;;;;;;;5.56;90.01;101026.05;104236;1270;76113;-65
2024/02/27 01:21:42;;;;;;;20.30;12.50;;;;;;;5.56;90.14;101026.41;104292;1267;66866;-65
2024/02/27 01:24:09;;;;;;;19.30;11.50;;;;;;;5.55;90.07;101023.02;104106;1262;138932;-65
2024/02/27 01:26:35;;;;;;;16.80;13.10;;;;;;;5.52;89.99;101019.39;104253;1264;61724;-65
2024/02/27 01:29:02;;;;;;;19.00;12.50;;;;;;;5.48;89.98;101017.43;104118;1265;138906;-65
2024/02/27 01:31:29;;;;;;;16.10;11.80;;;;;;;5.40;89.96;101007.52;104306;1267;75949;-65
2024/02/27 01:33:56;;;;;;;15.90;12.80;;;;;;;5.37;90.08;101015.85;104317;1267;67128;-65
2024/02/27 01:36:22;;;;;;;17.30;12.50;;;;;;;5.34;90.05;101018.52;104202;1268;138675;-66
2024/02/27 01:38:49;;;;;;;15.20;10.90;;;;;;;5.33;90.15;101014.27;104303;1263;61974;-65
2024/02/27 01:41:16;;;;;;;17.10;11.40;;;;;;;5.32;90.28;101011.95;104181;1268;138749;-66
2024/02/27 01:43:42;;;;;;;14.30;11.00;;;;;;;5.32;90.26;101022.23;104445;1262;74960;-65
2024/02/27 01:46:12;;;;;;;19.00;10.50;;;;;;;5.33;90.39;101023.15;104541;1266;67010;-65
2024/02/27 01:48:39;;;;;;;15.40;11.10;;;;;;;5.33;90.57;101023.16;104255;1265;138876;-66
2024/02/27 01:51:05;;;;;;;13.70;11.00;;;;;;;5.32;90.35;101027.61;104509;1262;61369;-65
2024/02/27 01:53:32;;;;;;;15.90;10.60;;;;;;;5.32;90.38;101023.98;104098;1263;138698;-65
2024/02/27 01:55:59;;;;;;;13.90;10.10;;;;;;;5.30;90.34;101019.00;104411;1265;73889;-65
2024/02/27 01:58:26;;;;;;;17.20;12.00;;;;;;;5.29;90.42;101015.80;104128;1266;66704;-65
2024/02/27 02:00:52;;;;;;;15.40;12.20;;;;;;;5.28;90.43;101015.25;104286;1267;140218;-66
2024/02/27 02:03:20;;;;;;;15.40;11.40;;;;;;;5.29;90.47;101009.02;104229;1263;61285;-65
2024/02/27 02:05:48;;;;;;;14.60;11.20;;;;;;;5.30;90.67;101009.79;104087;1263;152951;-66
2024/02/27 02:08:14;;;;;;;14.10;11.00;;;;;;;5.31;90.61;101017.98;108525;1262;75573;-66
2024/02/27 02:10:41;;;;;;;13.20;10.20;;;;;;;5.30;90.49;101025.27;108324;1262;65494;-66
2024/02/27 02:13:08;;;;;;;14.60;10.80;;;;;;;5.32;90.58;101032.66;108409;1262;138754;-66
2024/02/27 02:15:34;;;;;;;19.10;10.90;;;;;;;5.35;90.63;101033.00;108492;1262;59339;-62
2024/02/27 02:18:01;;;;;;;15.40;10.50;;;;;;;5.37;90.56;101036.77;108482;1262;138673;-62
2024/02/27 02:20:29;;;;;;;22.10;11.30;;;;;;;5.38;90.55;101036.82;108597;1262;75725;-62
2024/02/27 02:22:55;;;;;;;13.90;10.40;;;;;;;5.41;90.46;101042.70;108274;1263;140096;-62
2024/02/27 02:25:22;;;;;;;15.00;11.30;;;;;;;5.40;90.29;101037.77;108603;1262;71033;-62
2024/02/27 02:27:49;;;;;;;16.20;11.70;;;;;;;5.41;90.46;101043.25;108404;1264;59795;-63
2024/02/27 02:30:16;;;;;;;18.00;11.20;;;;;;;5.41;90.37;101043.05;108256;1262;138830;-63
2024/02/27 02:32:48;;;;;;;16.10;12.00;;;;;;;5.42;90.43;101041.02;108378;1264;72630;-62
2024/02/27 02:35:15;;;;;;;16.90;12.30;;;;;;;5.44;90.48;101040.06;105271;1270;139317;-62
2024/02/27 02:37:42;;;;;;;16.10;11.30;;;;;;;5.45;90.50;101034.73;104445;1263;71517;-62
2024/02/27 02:40:10;;;;;;;15.10;11.70;;;;;;;5.46;90.39;101035.45;107781;1263;59263;-62
2024/02/27 02:42:38;;;;;;;14.20;11.50;;;;;;;5.45;90.43;101033.70;104418;1268;138769;-62
2024/02/27 02:45:05;;;;;;;14.10;10.90;;;;;;;5.47;90.48;101037.09;104250;1264;75725;-61
2024/02/27 02:47:32;;;;;;;15.90;12.00;;;;;;;5.44;90.25;101032.39;108429;1262;138791;-62
2024/02/27 02:49:58;;;;;;;23.20;13.40;;;;;;;5.38;90.18;101028.45;108533;1265;72700;-62
2024/02/27 02:52:25;;;;;;;16.20;12.40;;;;;;;5.35;90.32;101030.90;108444;1262;59629;-62
2024/02/27 02:54:52;;;;;;;16.50;13.70;;;;;;;5.35;90.43;101034.40;108351;1263;138697;-63
2024/02/27 02:57:19;;;;;;;17.50;13.00;;;;;;;5.34;90.38;101037.45;106414;1270;73389;-61
2024/02/27 02:59:45;;;;;;;20.00;13.20;;;;;;;5.33;90.64;101036.20;104060;1266;139264;-61
2024/02/27 03:02:12;;;;;;;16.90;13.50;;;;;;;5.37;90.59;101041.44;104249;1265;72089;-61
2024/02/27 03:04:39;;;;;;;18.40;13.60;;;;;;;5.38;90.70;101040.96;104285;1267;61089;-62
2024/02/27 03:07:06;;;;;;;20.60;14.60;;;;;;;5.40;90.77;101037.77;104317;1262;139110;-62
2024/02/27 03:09:33;;;;;;;18.80;15.10;;;;;;;5.40;90.69;101044.40;104136;1270;75728;-62
2024/02/27 03:12:00;;;;;;;20.00;15.00;;;;;;;5.38;90.58;101042.89;104188;1267;139795;-63
2024/02/27 03:14:27;;;;;;;24.40;15.80;;;;;;;5.34;90.56;101046.70;104161;1266;73831;-62
2024/02/27 03:16:54;;;;;;;17.80;13.80;;;;;;;5.33;90.79;101046.30;108264;1265;138581;-63
2024/02/27 03:19:21;;;;;;;20.20;15.40;;;;;;;5.32;90.73;101040.50;108398;1262;59417;-63
2024/02/27 03:21:47;;;;;;;23.40;15.90;;;;;;;5.30;90.79;101040.05;108585;1265;76096;-62
2024/02/27 03:24:14;;;;;;;25.40;17.60;;;;;;;5.31;90.88;101040.95;108333;1262;138589;-63
2024/02/27 03:26:42;;;;;;;23.10;16.00;;;;;;;5.29;90.78;101035.29;108387;1262;71795;-62
2024/02/27 03:29:09;;;;;;;27.00;17.10;;;;;;;5.25;90.77;101038.44;108214;1262;139855;-62
2024/02/27 03:31:35;;;;;;;23.80;18.10;;;;;;;5.22;90.83;101032.68;108481;1262;59510;-62
2024/02/27 03:34:02;;;;;;;22.50;17.50;;;;;;;5.20;90.89;101030.17;108621;1262;75173;-62
2024/02/27 03:36:29;;;;;;;25.70;18.90;;;;;;;5.20;91.06;101030.34;105857;1269;138754;-62
2024/02/27 03:38:55;;;;;;;25.30;18.40;;;;;;;5.15;90.89;101032.88;104424;1268;73156;-62
2024/02/27 03:41:22;;;;;;;26.70;18.30;;;;;;;5.12;91.18;101031.28;104172;1268;139030;-63
2024/02/27 03:43:49;;;;;;;23.10;18.00;;;;;;;5.11;91.29;101036.98;104274;1262;61472;-61
2024/02/27 03:46:15;;;;;;;26.00;17.70;;;;;;;5.09;91.41;101036.04;104305;1267;74612;-61
2024/02/27 03:48:42;;;;;;;26.20;18.70;;;;;;;5.08;91.50;101035.27;104359;1263;138970;-61
2024/02/27 03:51:09;;;;;;;25.90;19.90;;;;;;;5.08;91.61;101041.50;104398;1263;71767;-62
2024/02/27 03:53:36;;;;;;;29.90;19.80;;;;;;;5.06;91.68;101042.67;104287;1266;139377;-62
2024/02/27 03:56:04;;;;;;;26.00;17.50;;;;;;;5.07;91.80;101048.46;104294;1262;61339;-61
2024/02/27 03:58:30;;;;;;;24.80;18.10;;;;;;;5.07;91.86;101057.12;108508;1262;74056;-62
2024/02/27 04:00:57;;;;;;;25.90;20.30;;;;;;;5.09;92.11;101059.16;108368;1263;138811;-62
2024/02/27 04:03:24;;;;;;;28.30;19.30;;;;;;;5.14;92.22;101062.17;107135;1266;71686;-61
2024/02/27 04:05:50;;;;;;;25.50;17.40;;;;;;;5.18;92.20;101062.59;104497;1263;139177;-61
2024/02/27 04:08:17;;;;;;;27.50;19.30;;;;;;;5.16;91.96;101062.14;104485;1268;61241;-60
2024/02/27 04:10:44;;;;;;;23.00;17.10;;;;;;;5.14;92.02;101060.45;104260;1262;73589;-60
2024/02/27 04:13:11;;;;;;;23.90;18.40;;;;;;;5.12;91.91;101065.23;108284;1262;138404;-61
2024/02/27 04:15:38;;;;;;;25.50;18.80;;;;;;;5.10;91.91;101061.10;108465;1262;71811;-65
2024/02/27 04:18:05;;;;;;;24.30;17.20;;;;;;;5.08;91.95;101062.56;108306;1263;138913;-66
2024/02/27 04:20:32;;;;;;;23.70;17.30;;;;;;;5.08;92.16;101068.16;108627;1263;60242;-66
2024/02/27 04:22:59;;;;;;;22.20;16.20;;;;;;;5.10;92.26;101065.77;108466;1263;138449;-66
2024/02/27 04:25:26;;;;;;;22.40;16.50;;;;;;;5.11;92.28;101066.04;108493;1266;66341;-66
2024/02/27 04:27:52;;;;;;;21.00;16.40;;;;;;;5.12;92.34;101066.29;108351;1261;73440;-64
2024/02/27 04:30:19;;;;;;;22.00;16.40;;;;;;;5.14;92.39;101068.97;108341;1262;138363;-64
2024/02/27 04:32:46;;;;;;;20.10;15.20;;;;;;;5.17;92.39;101068.09;108523;1262;59164;-64
2024/02/27 04:35:13;;;;;;;19.20;15.70;;;;;;;5.22;92.56;101074.64;108514;1263;138662;-64
2024/02/27 04:37:40;;;;;;;20.70;15.40;;;;;;;5.26;92.46;101077.80;108493;1262;65052;-64
2024/02/27 04:40:09;;;;;;;20.30;15.40;;;;;;;5.30;92.44;101078.66;108501;1262;73711;-65
2024/02/27 04:42:35;;;;;;;21.50;15.90;;;;;;;5.32;92.34;101080.03;108235;1261;139080;-65
2024/02/27 04:45:02;;;;;;;21.70;15.10;;;;;;;5.34;92.20;101086.37;108430;1262;59226;-64
2024/02/27 04:47:29;;;;;;;20.30;15.70;;;;;;;5.35;92.18;101083.27;108217;1262;138912;-65
2024/02/27 04:49:56;;;;;;;19.20;14.80;;;;;;;5.41;92.35;101087.23;108635;1262;66998;-64
2024/02/27 04:52:23;;;;;;;19.80;14.20;;;;;;;5.42;92.17;101080.84;108378;1263;72216;-67
2024/02/27 04:54:49;;;;;;;18.60;14.20;;;;;;;5.42;92.14;101076.87;108329;1262;138551;-67
2024/02/27 04:57:16;;;;;;;20.90;14.60;;;;;;;5.42;91.95;101069.19;106110;1266;61380;-67
2024/02/27 04:59:43;;;;;;;21.00;15.30;;;;;;;5.40;91.90;101065.60;104114;1266;138737;-66
2024/02/27 05:02:09;;;;;;;16.60;13.50;;;;;;;5.37;91.89;101063.56;104372;1263;64327;-65
2024/02/27 05:04:36;;;;;;;18.00;14.20;;;;;;;5.37;91.92;101064.58;104542;1263;71611;-66
2024/02/27 05:07:03;;;;;;;26.40;16.00;;;;;;;5.35;91.94;101068.51;104243;1263;138629;-64
2024/02/27 05:09:30;;;;;;;20.30;15.70;;;;;;;5.31;91.92;101068.13;104514;1268;61260;-64
2024/02/27 05:11:56;;;;;;;18.50;14.90;;;;;;;5.29;92.02;101072.54;104319;1263;138768;-61
2024/02/27 05:14:25;;;;;;;19.40;15.10;;;;;;;5.25;92.05;101063.14;104337;1268;65689;-61
2024/02/27 05:16:52;;;;;;;19.30;15.40;;;;;;;5.25;92.24;101066.62;108138;1262;70899;-62
2024/02/27 05:19:19;;;;;;;21.50;16.70;;;;;;;5.26;92.31;101066.33;108200;1262;138553;-62
2024/02/27 05:21:46;;;;;;;19.20;15.20;;;;;;;5.27;92.31;101067.21;108198;1267;59687;-61
2024/02/27 05:24:13;;;;;;;22.90;16.00;;;;;;;5.24;92.11;101072.64;107817;1263;138550;-62
2024/02/27 05:26:40;;;;;;;19.20;15.20;;;;;;;5.20;92.30;101085.85;107812;1268;66335;-62
2024/02/27 05:29:06;;;;;;;22.00;16.80;;;;;;;5.18;92.28;101080.16;108155;1263;139114;-62
2024/02/27 05:31:35;;;;;;;25.20;17.80;;;;;;;5.19;92.39;101084.58;108281;1263;59333;-62
2024/02/27 05:34:02;;;;;;;21.10;16.70;;;;;;;5.18;92.37;101077.18;108281;1262;60116;-62
2024/02/27 05:36:29;;;;;;;21.50;16.60;;;;;;;5.17;92.40;101080.45;107699;1266;139135;-62
2024/02/27 05:38:55;;;;;;;20.90;16.20;;;;;;;5.16;92.45;101074.30;107827;1268;65876;-63
2024/02/27 05:41:22;;;;;;;23.90;18.10;;;;;;;5.13;92.46;101079.54;107579;1262;140124;-62
2024/02/27 05:43:49;;;;;;;17.70;15.10;;;;;;;5.12;92.61;101089.55;108162;1262;60464;-61
2024/02/27 05:46:16;;;;;;;33.70;21.80;;;;;;;5.10;92.58;101085.09;108005;1263;61135;-65
2024/02/27 05:48:43;;;;;;;22.60;17.00;;;;;;;5.10;92.70;101093.63;108128;1262;138622;-61
2024/02/27 05:51:09;;;;;;;19.90;15.80;;;;;;;5.10;92.84;101090.88;107984;1263;66329;-61
2024/02/27 05:53:36;;;;;;;19.10;15.90;;;;;;;5.12;93.00;101088.51;107962;1262;139510;-62
2024/02/27 05:56:03;;;;;;;19.50;15.70;;;;;;;5.14;93.08;101091.41;107689;1263;59520;-64
2024/02/27 05:58:30;;;;;;;18.10;14.60;;;;;;;5.15;93.17;101090.61;108124;1261;59739;-62
2024/02/27 06:00:57;;;;;;;18.80;14.40;;;;;;;5.15;93.14;101096.54;108119;1262;140421;-66
2024/02/27 06:03:24;;;;;;;18.70;15.50;;;;;;;5.17;93.30;101097.84;108445;1263;66035;-66
2024/02/27 06:05:51;;;;;;;27.20;20.80;;;;;;;5.20;93.37;101102.15;108330;1262;138433;-67
2024/02/27 06:08:17;;;;;;;19.30;13.30;;;;;;;5.21;93.29;101106.79;108210;1263;62670;-66
2024/02/27 06:10:45;;;;;;;19.00;13.90;;;;;;;5.23;93.41;101107.20;108455;1262;61298;-65
2024/02/27 06:13:12;;;;;;;18.70;14.10;;;;;;;5.23;93.45;101109.34;108311;1262;138371;-75
2024/02/27 06:15:38;;;;;;;18.90;15.40;;;;;;;5.27;93.48;101108.12;108243;1268;66354;-73
2024/02/27 06:18:12;;;;;;;17.80;14.00;;;;;;;5.29;93.41;101102.60;108354;1262;138472;-74
2024/02/27 06:23:27;;;;;;;17.90;14.40;;;;;;;5.31;93.51;101103.96;105420;1262;138654;-69
2024/02/27 06:25:54;;;;;;;19.20;15.80;;;;;;;5.33;93.64;101107.20;106545;1264;75377;-69
2024/02/27 06:28:22;;;;;;;19.30;14.50;;;;;;;5.35;93.53;101106.95;108220;1263;66765;-69
2024/02/27 06:30:48;;;;;;;18.40;13.50;;;;;;;5.36;93.48;101106.64;108333;1263;138802;-69
2024/02/27 06:33:15;;;;;;;21.40;16.90;;;;;;;5.35;93.52;101100.53;108262;1263;59124;-69
2024/02/27 06:35:42;;;;;;;22.10;18.10;;;;;;;5.38;93.50;101097.02;106465;1266;139063;-68
2024/02/27 06:38:09;;;;;;;27.50;21.60;;;;;;;5.38;93.41;101099.62;105435;1268;73690;-68
2024/02/27 06:40:36;;;;;;;21.40;15.50;;;;;;;5.38;93.49;101102.41;105418;1264;66209;-74
2024/02/27 06:43:03;;;;;;;23.90;19.70;;;;;;;5.41;93.57;101098.91;105359;1267;138622;-73
2024/02/27 06:45:30;;;;;;;20.40;16.10;;;;;;;5.45;93.72;101101.39;105496;1268;61237;-73
2024/02/27 06:47:57;;;;;;;22.50;16.20;;;;;;;5.48;93.70;101099.63;105496;1263;138668;-73
2024/02/27 06:50:23;;;;;;;17.90;14.70;;;;;;;5.51;93.74;101102.35;105386;1266;74679;-73
2024/02/27 06:52:50;;;;;;;19.80;15.20;;;;;;;5.51;93.87;101100.98;105479;1267;66274;-73
2024/02/27 06:55:17;;;;;;;19.50;15.30;;;;;;;5.46;93.68;101111.72;105519;1263;138692;-73
2024/02/27 06:57:44;;;;;;;19.50;15.20;;;;;;;5.42;93.53;101108.87;105494;1267;61309;-73
2024/02/27 07:00:11;;;;;;;21.60;16.30;;;;;;;5.37;93.50;101110.73;105160;1267;139511;-73
2024/02/27 07:02:37;;;;;;;22.50;15.60;;;;;;;5.36;93.67;101108.95;105547;1267;74431;-73
2024/02/27 07:05:05;;;;;;;21.70;16.80;;;;;;;5.38;93.78;101106.22;105378;1268;138899;-73
2024/02/27 07:07:31;;;;;;;22.30;17.10;;;;;;;5.36;93.67;101107.50;106726;1263;71357;-73
2024/02/27 07:09:59;;;;;;;25.70;19.10;;;;;;;5.40;93.96;101112.98;105544;1268;61242;-73
2024/02/27 07:12:27;;;;;;;21.60;17.30;;;;;;;5.48;94.04;101121.34;105386;1264;138870;-73
2024/02/27 07:14:54;;;;;;;21.60;17.20;;;;;;;5.51;94.01;101122.39;105567;1267;74653;-73
2024/02/27 07:17:23;;;;;;;21.70;16.70;;;;;;;5.55;93.92;101122.77;105351;1268;138691;-73
2024/02/27 07:19:49;;;;;;;23.00;18.10;;;;;;;5.60;94.02;101122.16;105580;1268;72901;-72
2024/02/27 07:22:16;;;;;;;22.10;18.80;;;;;;;5.62;93.75;101123.69;105628;1263;61339;-73
2024/02/27 07:24:43;;;;;;;21.20;16.50;;;;;;;5.61;93.45;101122.70;105359;1266;138835;-72
2024/02/27 07:27:10;;;;;;;24.70;17.80;;;;;;;5.61;93.48;101126.05;105500;1267;73369;-73
2024/02/27 07:29:36;;;;;;;22.70;17.30;;;;;;;5.60;93.37;101121.66;105424;1268;138885;-73
2024/02/27 07:32:04;;;;;;;20.30;16.40;;;;;;;5.54;93.12;101121.52;105306;1263;71058;-73
2024/02/27 07:34:30;;;;;;;25.50;17.50;;;;;;;5.49;93.34;101125.61;105446;1263;61440;-73
2024/02/27 07:36:57;;;;;;;23.90;16.70;;;;;;;5.48;93.36;101125.69;105373;1269;138648;-73
2024/02/27 07:39:23;;;;;;;20.50;17.00;;;;;;;5.46;93.46;101125.45;105331;1262;73844;-73
2024/02/27 07:41:50;;;;;;;23.30;17.60;;;;;;;5.47;93.66;101128.11;105423;1268;138769;-74
2024/02/27 07:44:17;;;;;;;21.90;17.10;;;;;;;5.47;93.66;101131.08;105486;1265;71462;-74
2024/02/27 07:46:44;;;;;;;18.90;15.70;;;;;;;5.50;93.87;101127.72;105633;1267;61181;-75
2024/02/27 07:49:10;;;;;;;20.10;15.20;;;;;;;5.56;94.03;101127.19;105463;1271;138661;-74
2024/02/27 07:51:37;;;;;;;21.70;16.10;;;;;;;5.58;93.83;101128.34;105479;1264;75046;-75
2024/02/27 07:54:05;;;;;;;17.80;14.60;;;;;;;5.59;93.64;101131.68;105331;1267;138887;-75
2024/02/27 07:56:32;;;;;;;21.40;16.10;;;;;;;5.60;93.51;101134.89;105393;1266;70976;-75
2024/02/27 07:58:59;;;;;;;19.10;15.10;;;;;;;5.58;93.50;101124.48;105370;1263;138727;-74
2024/02/27 08:01:26;;;;;;;23.20;16.50;;;;;;;5.58;93.54;101122.58;105320;1269;61249;-75
2024/02/27 08:03:53;;;;;;;21.00;15.80;;;;;;;5.57;93.48;101123.23;105459;1267;74469;-76
2024/02/27 08:06:20;;;;;;;19.70;15.20;;;;;;;5.55;93.51;101121.55;105377;1268;138631;-76
2024/02/27 08:08:47;;;;;;;17.50;14.40;;;;;;;5.57;93.56;101115.58;105505;1264;72415;-76
2024/02/27 08:11:14;;;;;;;16.70;13.80;;;;;;;5.64;93.82;101115.05;105457;1269;139068;-76
2024/02/27 08:13:41;;;;;;;15.50;12.50;;;;;;;5.69;93.81;101112.85;105471;1266;61337;-75
2024/02/27 08:16:08;;;;;;;18.90;14.00;;;;;;;5.74;93.85;101119.04;105449;1267;74368;-75
2024/02/27 08:18:35;;;;;;;16.00;13.20;;;;;;;5.79;93.94;101120.88;105374;1266;138749;-75
2024/02/27 08:21:03;;;;;;;16.70;13.10;;;;;;;5.83;93.67;101120.69;105528;1264;72685;-72
2024/02/27 08:23:30;;;;;;;15.00;11.80;;;;;;;5.85;93.64;101123.08;105304;1277;138677;-73
2024/02/27 08:25:58;;;;;;;13.80;11.20;;;;;;;5.87;93.50;101130.83;105573;1264;61249;-73
2024/02/27 08:28:24;;;;;;;15.00;11.40;;;;;;;5.84;93.52;101135.23;105307;1268;74708;-73
2024/02/27 08:30:51;;;;;;;15.90;11.10;;;;;;;5.77;93.51;101146.16;105363;1267;138534;-73
2024/02/27 08:33:18;;;;;;;16.00;12.30;;;;;;;5.63;94.12;101150.70;105424;1269;71495;-73
2024/02/27 08:35:44;;;;;;;15.60;11.60;;;;;;;5.49;94.49;101146.30;105429;1264;139214;-73
2024/02/27 08:38:11;;;;;;;14.70;11.70;;;;;;;5.38;94.49;101144.90;105481;1266;61337;-73
2024/02/27 08:40:38;;;;;;;11.90;10.20;;;;;;;5.32;94.39;101149.96;105499;1267;74789;-74
2024/02/27 08:43:04;;;;;;;12.10;9.30;;;;;;;5.31;94.68;101148.84;105263;1266;138589;-73
2024/02/27 08:45:31;;;;;;;11.70;9.50;;;;;;;5.33;94.67;101143.91;105440;1266;72492;-74
2024/02/27 08:48:02;;;;;;;12.20;9.60;;;;;;;5.38;94.89;101140.16;105295;1268;139099;-74
2024/02/27 08:50:29;;;;;;;11.20;9.20;;;;;;;5.48;94.98;101134.42;106297;1264;61234;-74
2024/02/27 08:52:56;;;;;;;12.20;8.90;;;;;;;5.60;95.02;101127.90;105401;1264;74750;-74
2024/02/27 08:55:25;;;;;;;9.60;8.10;;;;;;;5.74;95.25;101124.43;105387;1267;138223;-74
2024/02/27 08:57:52;;;;;;;9.70;7.80;;;;;;;5.85;95.06;101135.61;105482;1264;71410;-74
2024/02/27 09:00:19;;;;;;;8.80;7.60;;;;;;;5.91;94.63;101144.59;105402;1264;138098;-74
2024/02/27 09:02:45;;;;;;;9.20;6.80;;;;;;;5.96;94.38;101154.33;105423;1264;61186;-73
2024/02/27 09:05:13;;;;;;;7.40;6.40;;;;;;;5.98;93.72;101155.82;105417;1269;139792;-73
2024/02/27 09:07:41;;;;;;;8.10;6.40;;;;;;;5.98;93.55;101161.71;105548;1264;66076;-73
2024/02/27 09:10:11;;;;;;;10.80;7.20;;;;;;;5.97;93.54;101164.33;108620;1263;72729;-74
2024/02/27 09:12:38;;;;;;;8.70;7.20;;;;;;;6.00;93.49;101165.84;108376;1269;138914;-74
2024/02/27 09:15:06;;;;;;;10.20;6.70;;;;;;;5.99;93.34;101169.79;108547;1262;60569;-74
2024/02/27 09:17:32;;;;;;;8.30;7.10;;;;;;;5.99;93.27;101172.95;108596;1263;139071;-73
2024/02/27 09:19:59;;;;;;;8.90;6.60;;;;;;;5.92;92.72;101172.53;107209;1263;66112;-73
2024/02/27 09:22:26;;;;;;;7.50;6.20;;;;;;;5.87;92.74;101173.14;105472;1267;72702;-72
2024/02/27 09:24:53;;;;;;;8.60;6.80;;;;;;;5.86;92.75;101177.81;105258;1264;138526;-73
2024/02/27 09:27:23;;;;;;;8.90;6.80;;;;;;;5.84;92.66;101175.42;105263;1277;61360;-73
2024/02/27 09:29:50;;;;;;;7.40;6.00;;;;;;;5.88;92.85;101169.02;105284;1264;138754;-73
2024/02/27 09:32:20;;;;;;;10.70;8.70;;;;;;;5.98;93.18;101169.38;105509;1267;66336;-73
2024/02/27 09:34:49;;;;;;;9.60;8.10;;;;;;;6.05;93.01;101173.73;108645;1262;71404;-73
2024/02/27 09:37:18;;;;;;;8.50;6.50;;;;;;;6.12;92.99;101178.27;107171;1264;138234;-73
2024/02/27 09:39:45;;;;;;;8.60;6.40;;;;;;;6.11;92.43;101181.88;108534;1263;59216;-73
2024/02/27 09:42:11;;;;;;;9.10;6.90;;;;;;;6.10;92.29;101179.89;105319;1264;138136;-73
2024/02/27 09:44:39;;;;;;;9.20;7.10;;;;;;;6.08;92.05;101185.20;105394;1264;66042;-73
2024/02/27 09:47:07;;;;;;;10.20;7.40;;;;;;;6.06;91.89;101187.19;105443;1267;138438;-73
2024/02/27 09:49:45;;;;;;;8.70;7.10;;;;;;;6.03;91.90;101190.04;108677;1262;58962;-73
2024/02/27 09:52:15;;;;;;;9.90;6.90;;;;;;;6.06;91.93;101197.46;105542;1263;62720;-73
2024/02/27 09:54:42;;;;;;;9.30;7.20;;;;;;;6.03;91.56;101200.29;105371;1266;138170;-73
2024/02/27 09:57:09;;;;;;;9.00;7.10;;;;;;;5.97;91.51;101200.17;105445;1264;65353;-73
2024/02/27 09:59:38;;;;;;;9.50;6.70;;;;;;;5.96;91.46;101196.48;105234;1264;138521;-73
2024/02/27 10:02:05;;;;;;;9.40;7.10;;;;;;;5.93;91.20;101194.38;105492;1267;61274;-74
2024/02/27 10:04:36;;;;;;;10.20;6.90;;;;;;;5.87;91.08;101194.73;105527;1267;61235;-73
2024/02/27 10:07:06;;;;;;;9.00;6.90;;;;;;;5.85;91.08;101198.14;105410;1264;138384;-73
2024/02/27 10:09:35;;;;;;;8.00;6.10;;;;;;;5.85;91.29;101198.66;105302;1263;65662;-74
2024/02/27 10:12:03;;;;;;;7.50;6.60;;;;;;;5.90;91.42;101195.92;108411;1263;138887;-74
2024/02/27 10:14:31;;;;;;;7.60;6.80;;;;;;;6.02;91.74;101199.03;106373;1264;61283;-74
2024/02/27 10:16:59;;;;;;;7.30;5.70;;;;;;;6.04;91.24;101208.55;105389;1267;61291;-73
2024/02/27 10:19:29;;;;;;;9.00;6.70;;;;;;;6.02;91.03;101207.73;105391;1264;76297;-73
2024/02/27 10:21:56;;;;;;;8.30;6.30;;;;;;;5.99;90.82;101211.61;105407;1267;64898;-74
2024/02/27 10:24:24;;;;;;;7.60;6.50;;;;;;;5.94;90.64;101213.56;105349;1267;138294;-74
2024/02/27 10:26:55;;;;;;;8.10;6.60;;;;;;;5.90;90.59;101209.89;105505;1264;61308;-72
2024/02/27 10:29:27;;;;;;;7.90;6.00;;;;;;;5.89;90.81;101215.06;107045;1266;138424;-73
2024/02/27 10:31:54;;;;;;;8.90;6.70;;;;;;;5.90;90.64;101216.86;105262;1264;75109;-73
2024/02/27 10:34:23;;;;;;;8.40;6.60;;;;;;;5.89;90.59;101220.77;105331;1264;65638;-72
2024/02/27 10:36:58;;;;;;;8.20;7.20;;;;;;;5.89;90.53;101222.52;105129;1264;138431;-74
2024/02/27 10:39:25;;;;;;;9.70;7.20;;;;;;;5.92;90.61;101224.98;105560;1267;61138;-74
2024/02/27 10:41:52;;;;;;;8.70;7.00;;;;;;;5.95;90.69;101222.17;104938;1264;256646;-73
2024/02/27 10:44:20;;;;;;;11.00;8.30;;;;;;;6.05;90.88;101228.11;105079;1264;73369;-73
2024/02/27 10:46:47;;;;;;;11.80;7.90;;;;;;;6.17;91.06;101233.23;105319;1263;66552;-74
2024/02/27 10:49:17;;;;;;;12.20;8.60;;;;;;;6.24;90.71;101245.41;105386;1267;138309;-74
2024/02/27 10:51:45;;;;;;;11.90;7.90;;;;;;;6.21;90.38;101236.23;105348;1268;61436;-74
2024/02/27 10:54:12;;;;;;;11.40;8.90;;;;;;;6.23;90.52;101240.53;105333;1267;138396;-74
2024/02/27 10:56:39;;;;;;;11.10;7.80;;;;;;;6.30;90.61;101241.20;105363;1264;74576;-74
2024/02/27 10:59:06;;;;;;;9.10;7.80;;;;;;;6.31;90.22;101241.80;105214;1264;138548;-74
2024/02/27 11:01:32;;;;;;;10.60;8.20;;;;;;;6.29;89.94;101241.66;105538;1263;72680;-74
2024/02/27 11:04:01;;;;;;;9.30;7.20;;;;;;;6.21;89.71;101238.87;105338;1268;61439;-74
2024/02/27 11:06:28;;;;;;;9.20;6.60;;;;;;;6.22;89.89;101246.03;105186;1264;138243;-74
2024/02/27 11:09:10;;;;;;;8.90;6.70;;;;;;;6.15;89.43;101243.41;105406;1264;74375;-75
2024/02/27 11:11:37;;;;;;;10.40;8.30;;;;;;;6.05;89.46;101252.66;105402;1263;138475;-75